Time;durP1;ratioP1;P1;durP2;ratioP2;P2;SDS_P1;SDS_P2;PMS_P1;PMS_P2;Temp;Humidity;BMP_temperature;BMP_pressure;BME280_temperature;BME280_humidity;BME280_pressure;Samples;Min_cycle;Max_cycle;Signal;HPM_P1;HPM_P2
2022/05/20 00:00:35;;;;;;;;;;;19.20;91.30;;;;;;4980008;28;20363;-78
2022/05/20 00:03:01;;;;;;;;;;;19.20;91.40;;;;;;4979593;28;20047;-78
2022/05/20 00:05:27;;;;;;;;;;;19.20;91.40;;;;;;4996529;28;19906;-78
2022/05/20 00:07:53;;;;;;;;;;;19.20;91.30;;;;;;4979295;28;20421;-79
2022/05/20 00:10:19;;;;;;;;;;;19.20;91.40;;;;;;4996890;28;19914;-79
2022/05/20 00:12:45;;;;;;;;;;;19.20;91.40;;;;;;4995235;28;19905;-78
2022/05/20 00:15:12;;;;;;;;;;;19.20;91.50;;;;;;4974526;28;20279;-79
2022/05/20 00:17:38;;;;;;;;;;;19.20;91.40;;;;;;4987498;28;19983;-79
2022/05/20 00:20:04;;;;;;;;;;;19.00;91.50;;;;;;4996787;28;20383;-78
2022/05/20 00:22:30;;;;;;;;;;;19.20;91.50;;;;;;4994596;28;19917;-78
2022/05/20 00:27:39;;;;;;;;;;;19.20;91.40;;;;;;4997871;28;19964;-79
2022/05/20 00:30:05;;;;;;;;;;;19.30;91.30;;;;;;4996691;28;19910;-79
2022/05/20 00:32:31;;;;;;;;;;;19.30;91.20;;;;;;4996426;28;19906;-79
2022/05/20 00:34:56;;;;;;;;;;;19.30;91.20;;;;;;4977555;28;19902;-78
2022/05/20 00:37:21;;;;;;;;;;;19.40;91.20;;;;;;4994703;28;19908;-78
2022/05/20 00:39:47;;;;;;;;;;;19.20;91.20;;;;;;4981734;28;19908;-80
2022/05/20 00:42:14;;;;;;;;;;;19.20;91.20;;;;;;4998780;28;19908;-79
2022/05/20 00:44:40;;;;;;;;;;;19.20;91.30;;;;;;4998877;28;19965;-79
2022/05/20 00:47:06;;;;;;;;;;;19.20;91.30;;;;;;4980206;28;19996;-79
2022/05/20 00:49:32;;;;;;;;;;;19.20;91.40;;;;;;4981575;28;19944;-79
2022/05/20 00:51:58;;;;;;;;;;;19.20;91.30;;;;;;4980907;28;20361;-79
2022/05/20 00:54:24;;;;;;;;;;;19.20;91.30;;;;;;4980327;28;19911;-79
2022/05/20 00:57:00;;;;;;;;;;;19.10;91.40;;;;;;4978288;28;19965;-79
2022/05/20 00:59:27;;;;;;;;;;;19.10;91.40;;;;;;4973448;28;19913;-79
2022/05/20 01:01:55;;;;;;;;;;;19.10;91.40;;;;;;4980746;28;20391;-79
2022/05/20 01:04:21;;;;;;;;;;;19.10;91.40;;;;;;4979520;28;20291;-79
2022/05/20 01:06:47;;;;;;;;;;;19.10;91.40;;;;;;4997540;28;19918;-79
2022/05/20 01:09:12;;;;;;;;;;;19.10;91.40;;;;;;4997684;28;19965;-79
2022/05/20 01:11:39;;;;;;;;;;;19.10;91.40;;;;;;4997084;28;19917;-79
2022/05/20 01:14:04;;;;;;;;;;;19.10;91.50;;;;;;4996216;28;19965;-79
2022/05/20 01:16:31;;;;;;;;;;;19.10;91.50;;;;;;4978634;28;19906;-79
2022/05/20 01:18:57;;;;;;;;;;;19.10;91.40;;;;;;4996871;28;19910;-79
2022/05/20 01:21:22;;;;;;;;;;;19.20;91.40;;;;;;4995922;28;20283;-79
2022/05/20 01:23:48;;;;;;;;;;;19.20;91.30;;;;;;4996354;28;19937;-79
2022/05/20 01:26:14;;;;;;;;;;;19.20;91.20;;;;;;4978199;28;19906;-79
2022/05/20 01:28:39;;;;;;;;;;;19.20;91.20;;;;;;4979188;28;19956;-79
2022/05/20 01:31:06;;;;;;;;;;;19.20;91.20;;;;;;4978410;28;19995;-79
2022/05/20 01:33:40;;;;;;;;;;;19.20;91.10;;;;;;4978434;28;20359;-79
2022/05/20 01:36:07;;;;;;;;;;;19.20;91.10;;;;;;4978298;28;19951;-79
2022/05/20 01:38:33;;;;;;;;;;;19.20;91.20;;;;;;4979165;28;19910;-79
2022/05/20 01:41:03;;;;;;;;;;;19.20;91.30;;;;;;4978761;28;19972;-79
2022/05/20 01:43:38;;;;;;;;;;;19.20;91.30;;;;;;4995872;28;19916;-79
2022/05/20 01:46:22;;;;;;;;;;;19.20;91.30;;;;;;4978063;28;19968;-79
2022/05/20 01:49:07;;;;;;;;;;;19.10;91.20;;;;;;4978633;28;19967;-79
2022/05/20 01:51:37;;;;;;;;;;;19.10;91.20;;;;;;4978022;28;19953;-79
2022/05/20 01:54:06;;;;;;;;;;;19.10;91.30;;;;;;4995172;28;19910;-79
2022/05/20 01:56:34;;;;;;;;;;;19.10;91.50;;;;;;4995316;28;19909;-79
2022/05/20 01:59:05;;;;;;;;;;;19.10;91.30;;;;;;4995747;28;19913;-79
2022/05/20 02:01:39;;;;;;;;;;;19.10;91.30;;;;;;4995631;28;19913;-79
2022/05/20 02:04:07;;;;;;;;;;;19.10;91.30;;;;;;4976123;28;19992;-79
2022/05/20 02:06:35;;;;;;;;;;;19.10;91.30;;;;;;4993971;28;20264;-79
2022/05/20 02:09:02;;;;;;;;;;;19.10;91.40;;;;;;4998458;28;19913;-79
2022/05/20 02:11:34;;;;;;;;;;;19.10;91.50;;;;;;4983658;28;19917;-79
2022/05/20 02:14:08;;;;;;;;;;;19.10;91.40;;;;;;4998460;28;20420;-79
2022/05/20 02:16:37;;;;;;;;;;;19.10;91.40;;;;;;4981498;28;20351;-79
2022/05/20 02:19:09;;;;;;;;;;;19.20;91.30;;;;;;4998699;28;20401;-79
2022/05/20 02:21:37;;;;;;;;;;;19.20;91.20;;;;;;4998659;28;20624;-79
2022/05/20 02:24:04;;;;;;;;;;;19.20;91.10;;;;;;4997932;28;19910;-79
2022/05/20 02:26:33;;;;;;;;;;;19.20;91.10;;;;;;4998046;28;20383;-79
2022/05/20 02:29:03;;;;;;;;;;;19.20;91.10;;;;;;4981068;28;20001;-79
2022/05/20 02:31:41;;;;;;;;;;;19.20;91.10;;;;;;4999117;28;19910;-79
2022/05/20 02:34:07;;;;;;;;;;;19.20;91.20;;;;;;4998028;28;20445;-79
2022/05/20 02:36:34;;;;;;;;;;;19.10;91.20;;;;;;5002223;28;19916;-80
2022/05/20 02:39:01;;;;;;;;;;;19.10;91.30;;;;;;5002301;28;19917;-78
2022/05/20 02:41:27;;;;;;;;;;;19.10;91.30;;;;;;5001645;28;19914;-79
2022/05/20 02:43:52;;;;;;;;;;;19.10;91.20;;;;;;4984318;28;19910;-79
2022/05/20 02:46:17;;;;;;;;;;;19.10;91.20;;;;;;5001939;28;19906;-79
2022/05/20 02:48:43;;;;;;;;;;;19.10;91.20;;;;;;5002395;28;19961;-79
2022/05/20 02:51:09;;;;;;;;;;;19.00;91.20;;;;;;4984298;28;19913;-79
2022/05/20 02:53:35;;;;;;;;;;;19.10;91.30;;;;;;4982774;28;19984;-79
2022/05/20 02:56:00;;;;;;;;;;;19.00;91.30;;;;;;4995448;28;19914;-78
2022/05/20 03:04:10;;;;;;;;;;;19.00;91.40;;;;;;4999462;28;19952;-79
2022/05/20 03:06:38;;;;;;;;;;;19.00;91.40;;;;;;4981770;28;20332;-79
2022/05/20 03:09:05;;;;;;;;;;;19.00;91.40;;;;;;5035860;22;19925;-77
2022/05/20 03:11:30;;;;;;;;;;;19.10;91.30;;;;;;4997248;28;19991;-77
2022/05/20 03:13:56;;;;;;;;;;;19.10;91.30;;;;;;4997114;28;20386;-77
2022/05/20 03:16:21;;;;;;;;;;;19.10;91.20;;;;;;4997267;28;19959;-78
2022/05/20 03:18:47;;;;;;;;;;;19.10;91.10;;;;;;4997120;28;19963;-78
2022/05/20 03:21:12;;;;;;;;;;;19.20;91.10;;;;;;4979033;28;19909;-77
2022/05/20 03:23:37;;;;;;;;;;;19.20;91.10;;;;;;4977783;28;19906;-77
2022/05/20 03:26:04;;;;;;;;;;;19.10;91.00;;;;;;4995118;28;19912;-77
2022/05/20 03:28:30;;;;;;;;;;;19.10;91.10;;;;;;4977192;28;19924;-77
2022/05/20 03:31:02;;;;;;;;;;;19.10;91.10;;;;;;4977859;28;19913;-78
2022/05/20 03:33:27;;;;;;;;;;;19.10;91.20;;;;;;4977237;28;20004;-76
2022/05/20 03:35:54;;;;;;;;;;;19.10;91.20;;;;;;4977518;28;19953;-78
2022/05/20 03:38:20;;;;;;;;;;;19.10;91.10;;;;;;5010250;28;20342;-78
2022/05/20 03:40:45;;;;;;;;;;;19.00;91.10;;;;;;5010010;28;19949;-77
2022/05/20 03:43:11;;;;;;;;;;;19.10;91.10;;;;;;4977413;28;19912;-78
2022/05/20 03:45:39;;;;;;;;;;;19.00;91.10;;;;;;4977071;28;19916;-77
2022/05/20 03:48:05;;;;;;;;;;;19.00;91.20;;;;;;4977548;28;19910;-77
2022/05/20 03:50:30;;;;;;;;;;;19.00;91.20;;;;;;4977128;28;19910;-77
2022/05/20 03:52:56;;;;;;;;;;;19.00;91.30;;;;;;5009790;28;19910;-77
2022/05/20 03:55:21;;;;;;;;;;;19.00;91.30;;;;;;4977044;28;20000;-78
2022/05/20 03:57:47;;;;;;;;;;;19.00;91.30;;;;;;4977044;28;19910;-78
2022/05/20 04:00:12;;;;;;;;;;;19.00;91.30;;;;;;4977162;28;20374;-78
2022/05/20 04:02:38;;;;;;;;;;;19.00;91.40;;;;;;4977140;28;19910;-78
2022/05/20 04:05:03;;;;;;;;;;;19.00;91.30;;;;;;4994434;28;20495;-78
2022/05/20 04:07:29;;;;;;;;;;;19.00;91.20;;;;;;5004717;28;19983;-78
2022/05/20 04:09:55;;;;;;;;;;;19.10;91.20;;;;;;4998513;28;19996;-78
2022/05/20 04:12:24;;;;;;;;;;;19.10;91.10;;;;;;5008199;28;20296;-77
2022/05/20 04:14:50;;;;;;;;;;;19.20;91.10;;;;;;4992840;28;19906;-77
2022/05/20 04:17:15;;;;;;;;;;;19.20;91.00;;;;;;5011725;28;20442;-78
2022/05/20 04:19:41;;;;;;;;;;;19.20;91.00;;;;;;5012290;28;19909;-78
2022/05/20 04:22:07;;;;;;;;;;;19.10;90.90;;;;;;5014075;28;19912;-78
2022/05/20 04:24:33;;;;;;;;;;;19.10;90.90;;;;;;4993688;28;19959;-78
2022/05/20 04:26:59;;;;;;;;;;;19.10;91.00;;;;;;4976946;28;20380;-77
2022/05/20 04:29:24;;;;;;;;;;;19.10;91.10;;;;;;4979001;28;19909;-78
2022/05/20 04:31:50;;;;;;;;;;;19.10;91.10;;;;;;4995534;28;19909;-78
2022/05/20 04:34:17;;;;;;;;;;;19.10;91.10;;;;;;4980264;28;19909;-77
2022/05/20 04:36:43;;;;;;;;;;;19.10;91.10;;;;;;4993930;28;20398;-77
2022/05/20 04:39:08;;;;;;;;;;;19.10;91.10;;;;;;5012852;28;19948;-78
2022/05/20 04:47:04;;;;;;;;;;;19.00;91.10;;;;;;4994006;28;19916;-77
2022/05/20 04:49:30;;;;;;;;;;;19.00;91.10;;;;;;5006992;28;19917;-77
2022/05/20 04:51:56;;;;;;;;;;;19.00;91.10;;;;;;4976408;28;19905;-78
2022/05/20 04:57:07;;;;;;;;;;;19.00;91.10;;;;;;5002104;28;19917;-77
2022/05/20 04:59:34;;;;;;;;;;;19.10;91.20;;;;;;4976103;28;19910;-76
2022/05/20 05:01:59;;;;;;;;;;;19.00;91.10;;;;;;4978872;28;20370;-76
2022/05/20 05:04:25;;;;;;;;;;;19.10;91.20;;;;;;4996564;28;19912;-77
2022/05/20 05:06:52;;;;;;;;;;;19.10;91.10;;;;;;4982237;28;19918;-78
2022/05/20 05:09:18;;;;;;;;;;;19.10;91.00;;;;;;4974704;28;20255;-77
2022/05/20 05:11:43;;;;;;;;;;;19.20;90.90;;;;;;4995879;28;19917;-78
2022/05/20 05:14:10;;;;;;;;;;;19.20;90.90;;;;;;4975294;28;19956;-77
2022/05/20 05:16:36;;;;;;;;;;;19.20;90.80;;;;;;4974388;28;19910;-77
2022/05/20 05:19:03;;;;;;;;;;;19.20;91.10;;;;;;4992831;28;19921;-78
2022/05/20 05:21:28;;;;;;;;;;;19.20;90.90;;;;;;4975732;28;19916;-77
2022/05/20 05:23:54;;;;;;;;;;;19.20;90.90;;;;;;4992690;28;19913;-77
2022/05/20 05:26:22;;;;;;;;;;;19.10;90.90;;;;;;4973501;28;19945;-77
2022/05/20 05:28:47;;;;;;;;;;;19.10;90.90;;;;;;4969757;28;19921;-76
2022/05/20 05:31:13;;;;;;;;;;;19.10;90.90;;;;;;4987693;28;19921;-78
2022/05/20 05:33:38;;;;;;;;;;;19.10;90.90;;;;;;4971913;28;19984;-77
2022/05/20 05:36:04;;;;;;;;;;;19.10;90.80;;;;;;4975784;28;19952;-79
2022/05/20 05:38:29;;;;;;;;;;;19.10;90.80;;;;;;4987879;28;19912;-77
2022/05/20 05:40:55;;;;;;;;;;;19.10;90.80;;;;;;4976234;28;19955;-76
2022/05/20 05:43:20;;;;;;;;;;;19.10;90.90;;;;;;4961246;28;19910;-76
2022/05/20 05:45:46;;;;;;;;;;;19.10;91.00;;;;;;4974272;28;19918;-77
2022/05/20 05:48:12;;;;;;;;;;;19.10;91.10;;;;;;4974825;28;20390;-78
2022/05/20 05:50:39;;;;;;;;;;;19.10;91.10;;;;;;4972092;28;19917;-79
2022/05/20 05:53:09;;;;;;;;;;;19.10;91.00;;;;;;4986806;28;19910;-77
2022/05/20 05:55:35;;;;;;;;;;;19.10;91.00;;;;;;4984874;28;19968;-76
2022/05/20 05:58:01;;;;;;;;;;;19.10;90.90;;;;;;5003361;28;19913;-76
2022/05/20 06:00:26;;;;;;;;;;;19.20;90.90;;;;;;4974763;28;20000;-77
2022/05/20 06:02:52;;;;;;;;;;;19.20;90.80;;;;;;4988470;28;19905;-77
2022/05/20 06:05:17;;;;;;;;;;;19.20;90.70;;;;;;4983643;28;19909;-78
2022/05/20 06:07:43;;;;;;;;;;;19.20;90.60;;;;;;4974493;28;19921;-77
2022/05/20 06:10:08;;;;;;;;;;;19.30;90.60;;;;;;4983956;28;19913;-76
2022/05/20 06:12:34;;;;;;;;;;;19.30;90.50;;;;;;4974450;28;19940;-77
2022/05/20 06:15:04;;;;;;;;;;;19.20;90.50;;;;;;4974720;28;19913;-77
2022/05/20 06:17:30;;;;;;;;;;;19.20;90.50;;;;;;4981046;28;19914;-77
2022/05/20 06:19:55;;;;;;;;;;;19.20;90.50;;;;;;4992477;28;19910;-77
2022/05/20 06:22:20;;;;;;;;;;;19.20;90.50;;;;;;4992264;28;19920;-77
2022/05/20 06:24:46;;;;;;;;;;;19.20;90.30;;;;;;4993923;28;19917;-78
2022/05/20 06:27:11;;;;;;;;;;;19.30;90.40;;;;;;4976373;28;19933;-76
2022/05/20 06:29:38;;;;;;;;;;;19.30;90.50;;;;;;4976733;28;20275;-76
2022/05/20 06:32:03;;;;;;;;;;;19.20;90.40;;;;;;4976797;28;19961;-77
2022/05/20 06:39:48;;;;;;;;;;;19.20;90.50;;;;;;4976259;28;20480;-78
2022/05/20 06:40:06;;;;;;;;;;;19.30;90.50;;;;;;4993426;28;20040;-77
2022/05/20 06:42:31;;;;;;;;;;;19.30;90.50;;;;;;4966491;28;20371;-76
2022/05/20 06:44:57;;;;;;;;;;;19.30;90.50;;;;;;4976501;28;20040;-77
2022/05/20 06:47:22;;;;;;;;;;;19.30;90.50;;;;;;4976055;28;19921;-76
2022/05/20 06:49:48;;;;;;;;;;;19.30;90.40;;;;;;4977633;28;20389;-77
2022/05/20 06:52:13;;;;;;;;;;;19.40;90.40;;;;;;4975086;28;19920;-77
2022/05/20 06:54:39;;;;;;;;;;;19.40;90.30;;;;;;4975700;28;19913;-78
2022/05/20 06:57:04;;;;;;;;;;;19.40;90.20;;;;;;4975616;28;19909;-77
2022/05/20 06:59:30;;;;;;;;;;;19.50;90.10;;;;;;4975782;28;20263;-77
2022/05/20 07:02:00;;;;;;;;;;;19.50;90.00;;;;;;4993653;28;20425;-77
2022/05/20 07:04:27;;;;;;;;;;;19.50;89.70;;;;;;4975771;28;19961;-77
2022/05/20 07:06:52;;;;;;;;;;;19.50;89.50;;;;;;4975922;28;19914;-78
2022/05/20 07:09:18;;;;;;;;;;;19.60;89.50;;;;;;4993267;28;19927;-77
2022/05/20 07:11:43;;;;;;;;;;;19.50;89.40;;;;;;5008098;28;19913;-77
2022/05/20 07:14:09;;;;;;;;;;;19.50;89.30;;;;;;4975501;28;20055;-77
2022/05/20 07:16:34;;;;;;;;;;;19.50;89.60;;;;;;4975350;28;19914;-77
2022/05/20 07:18:59;;;;;;;;;;;19.50;89.60;;;;;;4975243;28;19968;-77
2022/05/20 07:21:25;;;;;;;;;;;19.50;89.50;;;;;;4975496;28;20039;-77
2022/05/20 07:23:51;;;;;;;;;;;19.60;89.60;;;;;;4992769;28;19914;-77
2022/05/20 07:26:17;;;;;;;;;;;19.60;89.60;;;;;;4975191;28;19910;-76
2022/05/20 07:28:43;;;;;;;;;;;19.60;89.70;;;;;;4975177;28;19914;-76
2022/05/20 07:31:08;;;;;;;;;;;19.60;89.70;;;;;;4993363;28;19916;-77
2022/05/20 07:33:34;;;;;;;;;;;19.60;89.60;;;;;;5007307;28;19953;-76
2022/05/20 07:36:00;;;;;;;;;;;19.60;89.60;;;;;;4992715;28;19941;-77
2022/05/20 07:38:25;;;;;;;;;;;19.60;89.50;;;;;;4993192;28;19931;-76
2022/05/20 07:40:51;;;;;;;;;;;19.60;89.40;;;;;;4996737;28;20385;-77
2022/05/20 07:43:20;;;;;;;;;;;19.60;89.40;;;;;;4994981;28;19909;-76
2022/05/20 07:45:46;;;;;;;;;;;19.60;89.30;;;;;;4983148;28;19977;-75
2022/05/20 07:48:12;;;;;;;;;;;19.70;89.30;;;;;;4974372;28;19913;-76
2022/05/20 07:50:40;;;;;;;;;;;19.70;89.00;;;;;;4975981;28;20390;-77
2022/05/20 07:53:20;;;;;;;;;;;19.70;88.80;;;;;;4976191;28;19913;-77
2022/05/20 07:55:55;;;;;;;;;;;19.80;88.60;;;;;;4993123;28;19957;-77
2022/05/20 07:58:24;;;;;;;;;;;19.80;88.30;;;;;;4981516;28;19932;-77
2022/05/20 08:00:49;;;;;;;;;;;19.90;88.30;;;;;;4999651;28;19906;-76
2022/05/20 08:04:52;;;;;;;;;;;19.90;88.10;;;;;;4991358;28;19961;-76
2022/05/20 08:06:02;;;;;;;;;;;19.80;87.90;;;;;;4991731;28;19935;-76
2022/05/20 08:08:27;;;;;;;;;;;19.80;88.10;;;;;;4974994;28;20004;-78
2022/05/20 08:10:53;;;;;;;;;;;19.80;88.20;;;;;;4980386;28;19913;-75
2022/05/20 08:13:21;;;;;;;;;;;19.80;88.40;;;;;;4994403;28;19909;-76
2022/05/20 08:15:47;;;;;;;;;;;19.80;88.40;;;;;;4994363;28;19925;-76
2022/05/20 08:18:13;;;;;;;;;;;19.90;88.50;;;;;;4993787;28;19910;-76
2022/05/20 08:20:38;;;;;;;;;;;19.80;88.40;;;;;;4975212;28;19909;-77
2022/05/20 08:23:04;;;;;;;;;;;19.80;88.40;;;;;;4993196;28;19914;-75
2022/05/20 08:25:29;;;;;;;;;;;19.90;88.40;;;;;;4975739;28;20625;-77
2022/05/20 08:27:55;;;;;;;;;;;19.90;88.30;;;;;;4985155;28;19920;-78
2022/05/20 08:30:22;;;;;;;;;;;19.90;88.30;;;;;;4975036;28;20020;-77
2022/05/20 08:32:47;;;;;;;;;;;19.90;88.20;;;;;;4976107;28;20589;-76
2022/05/20 08:35:13;;;;;;;;;;;19.90;88.20;;;;;;4981157;28;19917;-77
2022/05/20 08:37:44;;;;;;;;;;;19.90;88.20;;;;;;4979379;28;20302;-76
2022/05/20 08:40:11;;;;;;;;;;;19.90;88.20;;;;;;4982061;28;19918;-76
2022/05/20 08:42:37;;;;;;;;;;;20.00;88.00;;;;;;4979784;28;19940;-77
2022/05/20 08:45:03;;;;;;;;;;;20.00;87.80;;;;;;4980989;28;20543;-76
2022/05/20 08:47:32;;;;;;;;;;;20.00;87.60;;;;;;4992005;28;20302;-77
2022/05/20 08:49:59;;;;;;;;;;;20.10;87.50;;;;;;4991572;28;19958;-77
2022/05/20 08:52:25;;;;;;;;;;;20.10;87.80;;;;;;4980938;28;19925;-77
2022/05/20 08:54:50;;;;;;;;;;;20.10;87.10;;;;;;4994629;28;20294;-77
2022/05/20 08:57:16;;;;;;;;;;;20.10;86.80;;;;;;4981000;28;19909;-76
2022/05/20 08:59:41;;;;;;;;;;;20.10;87.00;;;;;;5011125;28;19916;-77
2022/05/20 09:02:07;;;;;;;;;;;20.10;87.20;;;;;;4981047;28;19913;-76
2022/05/20 09:04:32;;;;;;;;;;;20.10;87.30;;;;;;5006128;28;20016;-77
2022/05/20 09:07:04;;;;;;;;;;;20.10;87.30;;;;;;4980210;28;20012;-77
2022/05/20 09:09:48;;;;;;;;;;;20.10;87.40;;;;;;4979524;28;19923;-76
2022/05/20 09:12:33;;;;;;;;;;;20.10;88.00;;;;;;4991384;28;19968;-77
2022/05/20 09:17:51;;;;;;;;;;;20.10;87.50;;;;;;4989998;28;20286;-77
2022/05/20 09:20:18;;;;;;;;;;;20.10;87.50;;;;;;4972378;28;19917;-77
2022/05/20 09:22:59;;;;;;;;;;;20.10;87.40;;;;;;4977799;28;20363;-76
2022/05/20 09:25:33;;;;;;;;;;;20.20;87.40;;;;;;4990745;28;20012;-76
2022/05/20 09:28:22;;;;;;;;;;;20.20;87.30;;;;;;4979694;28;20036;-76
2022/05/20 09:30:49;;;;;;;;;;;20.20;87.30;;;;;;4979839;28;19917;-76
2022/05/20 09:33:20;;;;;;;;;;;20.20;87.20;;;;;;4988791;28;19917;-76
2022/05/20 09:35:47;;;;;;;;;;;20.20;87.10;;;;;;4989562;28;19913;-77
2022/05/20 09:38:51;;;;;;;;;;;20.20;87.00;;;;;;4990967;28;19925;-76
2022/05/20 09:41:20;;;;;;;;;;;20.30;86.90;;;;;;4951109;28;19914;-77
2022/05/20 09:43:51;;;;;;;;;;;20.30;86.70;;;;;;4950178;28;19914;-77
2022/05/20 09:46:39;;;;;;;;;;;20.30;86.50;;;;;;4952528;28;19960;-76
2022/05/20 09:49:16;;;;;;;;;;;20.30;86.40;;;;;;4970507;28;20306;-77
2022/05/20 09:51:46;;;;;;;;;;;20.30;86.00;;;;;;4970440;28;19916;-77
2022/05/20 09:54:15;;;;;;;;;;;20.40;86.50;;;;;;4952791;28;19906;-77
2022/05/20 09:56:45;;;;;;;;;;;20.30;86.60;;;;;;4953448;28;19917;-77
2022/05/20 09:59:10;;;;;;;;;;;20.30;87.30;;;;;;4953334;28;19910;-75
2022/05/20 10:01:37;;;;;;;;;;;20.30;86.80;;;;;;4970486;28;19910;-76
2022/05/20 10:04:05;;;;;;;;;;;20.30;86.90;;;;;;4953114;28;19910;-77
2022/05/20 10:06:37;;;;;;;;;;;20.30;87.00;;;;;;4953374;28;19906;-77
2022/05/20 10:09:18;;;;;;;;;;;20.30;87.00;;;;;;4970343;28;19926;-77
2022/05/20 10:11:47;;;;;;;;;;;20.30;87.00;;;;;;4970586;28;20649;-76
2022/05/20 10:14:19;;;;;;;;;;;20.30;87.00;;;;;;4969988;28;20363;-76
2022/05/20 10:16:53;;;;;;;;;;;20.10;86.80;;;;;;4970120;28;19914;-76
2022/05/20 10:19:45;;;;;;;;;;;20.30;86.80;;;;;;4970383;28;20430;-77
2022/05/20 10:22:23;;;;;;;;;;;20.30;86.80;;;;;;4952927;28;19910;-77
2022/05/20 10:24:57;;;;;;;;;;;20.30;86.80;;;;;;4953176;28;19913;-76
2022/05/20 10:27:25;;;;;;;;;;;20.30;87.00;;;;;;4952618;28;19921;-77
2022/05/20 10:32:57;;;;;;;;;;;20.20;87.30;;;;;;4973612;28;19957;-75
2022/05/20 10:35:25;;;;;;;;;;;20.20;87.40;;;;;;4955717;28;19910;-76
2022/05/20 10:37:51;;;;;;;;;;;20.20;87.40;;;;;;4956616;28;19928;-77
2022/05/20 10:40:36;;;;;;;;;;;20.20;87.30;;;;;;4955677;28;19906;-77
2022/05/20 10:43:01;;;;;;;;;;;20.20;87.30;;;;;;4973386;28;19996;-75
2022/05/20 10:48:34;;;;;;;;;;;20.20;87.20;;;;;;4973091;28;19917;-76
2022/05/20 10:51:13;;;;;;;;;;;20.10;87.40;;;;;;4973138;28;20024;-76
2022/05/20 10:53:42;;;;;;;;;;;20.10;87.60;;;;;;4972824;28;20148;-77
2022/05/20 10:56:16;;;;;;;;;;;20.10;87.80;;;;;;4955571;28;19916;-76
2022/05/20 10:58:54;;;;;;;;;;;20.10;87.90;;;;;;4973068;28;20020;-75
2022/05/20 11:01:22;;;;;;;;;;;20.10;87.80;;;;;;4972310;28;19956;-76
2022/05/20 11:03:54;;;;;;;;;;;20.10;87.80;;;;;;4955230;28;19909;-76
2022/05/20 11:06:31;;;;;;;;;;;20.10;87.80;;;;;;4955263;28;20425;-77
2022/05/20 11:08:57;;;;;;;;;;;20.10;87.80;;;;;;4955044;28;20698;-76
2022/05/20 11:11:41;;;;;;;;;;;20.10;87.70;;;;;;4955724;28;19976;-77
2022/05/20 11:14:22;;;;;;;;;;;20.10;87.70;;;;;;4988031;28;19910;-77
2022/05/20 11:16:54;;;;;;;;;;;20.10;87.70;;;;;;4955020;28;20511;-76
2022/05/20 11:19:35;;;;;;;;;;;20.20;87.70;;;;;;4954193;28;19910;-77
2022/05/20 11:22:23;;;;;;;;;;;20.10;87.50;;;;;;4955501;28;20191;-77
2022/05/20 11:24:49;;;;;;;;;;;20.20;87.50;;;;;;4951733;28;20331;-77
2022/05/20 11:27:27;;;;;;;;;;;20.20;87.40;;;;;;4955040;28;19925;-77
2022/05/20 11:29:53;;;;;;;;;;;20.20;87.20;;;;;;4979338;28;20394;-76
2022/05/20 11:32:38;;;;;;;;;;;20.30;87.10;;;;;;5006647;28;19913;-77
2022/05/20 11:35:04;;;;;;;;;;;20.30;87.00;;;;;;5006703;28;19937;-76
2022/05/20 11:37:36;;;;;;;;;;;20.30;86.80;;;;;;4989303;28;19917;-79
2022/05/20 11:40:14;;;;;;;;;;;20.30;86.50;;;;;;4999487;28;19945;-81
2022/05/20 11:42:39;;;;;;;;;;;20.30;86.70;;;;;;4973602;28;19912;-81
2022/05/20 11:45:23;;;;;;;;;;;20.30;87.00;;;;;;4980829;28;19913;-77
2022/05/20 11:47:48;;;;;;;;;;;20.20;87.20;;;;;;5025695;28;20016;-78
2022/05/20 11:50:33;;;;;;;;;;;20.20;87.40;;;;;;5027215;28;20011;-76
2022/05/20 11:53:01;;;;;;;;;;;20.20;87.40;;;;;;5006957;28;19917;-76
2022/05/20 11:55:26;;;;;;;;;;;20.20;87.50;;;;;;4974089;28;20055;-76
2022/05/20 11:58:02;;;;;;;;;;;20.20;87.60;;;;;;4990892;28;19917;-76
2022/05/20 12:00:29;;;;;;;;;;;20.20;87.70;;;;;;4972062;28;20722;-76
2022/05/20 12:02:59;;;;;;;;;;;20.10;87.70;;;;;;4989828;28;19921;-76
2022/05/20 12:05:27;;;;;;;;;;;20.10;87.80;;;;;;4972836;28;19971;-77
2022/05/20 12:07:52;;;;;;;;;;;20.10;87.70;;;;;;4973163;28;19921;-78
2022/05/20 12:10:30;;;;;;;;;;;20.10;87.80;;;;;;4973631;28;19909;-76
2022/05/20 12:13:14;;;;;;;;;;;20.10;87.80;;;;;;4992744;28;19984;-77
2022/05/20 12:15:42;;;;;;;;;;;20.10;87.80;;;;;;4976142;28;19914;-77
2022/05/20 12:24:22;;;;;;;;;;;20.20;87.60;;;;;;5006918;28;20369;-77
2022/05/20 12:26:49;;;;;;;;;;;20.20;87.40;;;;;;4969913;28;19916;-77
2022/05/20 12:29:33;;;;;;;;;;;20.30;87.30;;;;;;4970011;28;19981;-76
2022/05/20 12:31:58;;;;;;;;;;;20.30;87.70;;;;;;4986116;28;19917;-77
2022/05/20 12:34:38;;;;;;;;;;;20.30;87.20;;;;;;4969361;28;19910;-76
2022/05/20 12:37:03;;;;;;;;;;;20.20;87.10;;;;;;4969071;28;19906;-77
2022/05/20 12:39:48;;;;;;;;;;;20.20;87.40;;;;;;4970460;28;19956;-77
2022/05/20 12:42:25;;;;;;;;;;;20.20;87.60;;;;;;4969500;28;19910;-76
2022/05/20 12:44:50;;;;;;;;;;;20.10;87.80;;;;;;4969127;28;19906;-76
2022/05/20 12:47:32;;;;;;;;;;;20.10;88.00;;;;;;4970496;28;20172;-76
2022/05/20 12:50:03;;;;;;;;;;;20.10;88.10;;;;;;4968830;28;19910;-77
2022/05/20 12:52:33;;;;;;;;;;;20.10;88.20;;;;;;4969155;28;19906;-79
2022/05/20 12:55:00;;;;;;;;;;;20.10;88.30;;;;;;4970703;28;19910;-75
2022/05/20 12:57:31;;;;;;;;;;;20.10;88.30;;;;;;4968799;28;19910;-76
2022/05/20 12:59:58;;;;;;;;;;;20.10;88.40;;;;;;4969019;28;20330;-77
2022/05/20 13:02:27;;;;;;;;;;;20.00;88.30;;;;;;4969064;28;20001;-75
2022/05/20 13:05:05;;;;;;;;;;;20.10;88.40;;;;;;4968752;28;19906;-76
2022/05/20 13:07:31;;;;;;;;;;;20.00;88.40;;;;;;4969546;28;20248;-75
2022/05/20 13:09:57;;;;;;;;;;;20.00;88.40;;;;;;4968635;28;20353;-75
2022/05/20 13:12:22;;;;;;;;;;;20.00;88.50;;;;;;4968058;28;19981;-78
2022/05/20 13:14:56;;;;;;;;;;;20.00;88.50;;;;;;4969549;28;20279;-77
2022/05/20 13:17:21;;;;;;;;;;;20.10;88.50;;;;;;4972706;28;19910;-76
2022/05/20 13:19:49;;;;;;;;;;;20.00;88.30;;;;;;5003146;28;19917;-78
2022/05/20 13:22:16;;;;;;;;;;;20.10;88.30;;;;;;4987926;28;19918;-78
2022/05/20 13:24:41;;;;;;;;;;;20.10;88.20;;;;;;5003189;28;19920;-78
2022/05/20 13:27:16;;;;;;;;;;;20.10;88.10;;;;;;4972933;28;20082;-78
2022/05/20 13:29:42;;;;;;;;;;;20.10;88.10;;;;;;4971641;28;19905;-78
2022/05/20 13:32:21;;;;;;;;;;;20.10;88.00;;;;;;4975431;28;20414;-79
2022/05/20 13:34:51;;;;;;;;;;;20.10;88.00;;;;;;4971520;28;20363;-79
2022/05/20 13:37:20;;;;;;;;;;;20.10;88.30;;;;;;4971107;28;19936;-76
2022/05/20 13:39:45;;;;;;;;;;;20.00;88.40;;;;;;4959951;28;20001;-76
2022/05/20 13:42:13;;;;;;;;;;;20.00;88.60;;;;;;4993343;28;20048;-75
2022/05/20 13:44:44;;;;;;;;;;;20.00;88.80;;;;;;4971303;28;19910;-76
2022/05/20 13:49:55;;;;;;;;;;;19.90;89.10;;;;;;4989296;28;20457;-77
2022/05/20 13:52:21;;;;;;;;;;;19.90;89.20;;;;;;4971757;28;19914;-77
2022/05/20 13:54:51;;;;;;;;;;;19.90;89.30;;;;;;4970936;28;20064;-77
2022/05/20 13:57:23;;;;;;;;;;;19.90;89.40;;;;;;4976100;28;20370;-77
2022/05/20 13:59:49;;;;;;;;;;;19.90;89.50;;;;;;5004121;28;20691;-77
2022/05/20 14:02:16;;;;;;;;;;;19.90;89.50;;;;;;4973096;28;20008;-77
2022/05/20 14:04:47;;;;;;;;;;;19.80;89.60;;;;;;4983868;28;19913;-77
2022/05/20 14:07:31;;;;;;;;;;;19.80;89.70;;;;;;4991577;28;19914;-76
2022/05/20 14:10:06;;;;;;;;;;;19.80;89.70;;;;;;4991809;28;19916;-77
2022/05/20 14:12:33;;;;;;;;;;;19.80;89.80;;;;;;4974395;28;19914;-77
2022/05/20 14:15:15;;;;;;;;;;;19.80;89.70;;;;;;4996161;28;19910;-78
2022/05/20 14:17:42;;;;;;;;;;;19.80;89.70;;;;;;4975290;28;19909;-76
2022/05/20 14:20:11;;;;;;;;;;;19.80;89.60;;;;;;4975085;28;20013;-77
2022/05/20 14:22:38;;;;;;;;;;;19.80;89.50;;;;;;4975343;28;19909;-76
2022/05/20 14:25:07;;;;;;;;;;;19.90;89.40;;;;;;4997215;28;19967;-77
2022/05/20 14:27:40;;;;;;;;;;;19.90;89.40;;;;;;4978221;28;19910;-78
2022/05/20 14:30:14;;;;;;;;;;;19.80;89.30;;;;;;4981045;28;19921;-78
2022/05/20 14:32:39;;;;;;;;;;;19.80;89.50;;;;;;4991736;28;19910;-79
2022/05/20 14:35:06;;;;;;;;;;;19.80;89.70;;;;;;4991535;28;20337;-77
2022/05/20 14:37:33;;;;;;;;;;;19.80;89.90;;;;;;4980839;28;19920;-77
2022/05/20 14:40:08;;;;;;;;;;;19.80;90.00;;;;;;4991360;28;20062;-77
2022/05/20 14:42:38;;;;;;;;;;;19.70;90.00;;;;;;4980688;28;20432;-78
2022/05/20 14:45:06;;;;;;;;;;;19.70;90.10;;;;;;4980177;28;19913;-79
2022/05/20 14:47:37;;;;;;;;;;;19.70;90.20;;;;;;4988335;28;20333;-76
2022/05/20 14:50:05;;;;;;;;;;;19.70;90.20;;;;;;4978746;28;19910;-78
2022/05/20 14:52:41;;;;;;;;;;;19.60;90.20;;;;;;4974673;28;19909;-78
2022/05/20 14:55:07;;;;;;;;;;;19.70;90.20;;;;;;4974019;28;19913;-78
2022/05/20 14:57:33;;;;;;;;;;;19.60;90.20;;;;;;4970047;28;20016;-77
2022/05/20 15:00:05;;;;;;;;;;;19.60;90.20;;;;;;4974528;28;20013;-77
2022/05/20 15:02:30;;;;;;;;;;;19.60;90.30;;;;;;4990648;28;20370;-79